sensor_id;sensor_type;location;lat;lon;timestamp;P1;durP1;ratioP1;P2;durP2;ratioP2
16246;SDS011;8231;50.866;7.944;2023-09-19T00:00:20;2.10;;;1.65;;
16246;SDS011;8231;50.866;7.944;2023-09-19T00:02:52;2.35;;;2.15;;
16246;SDS011;8231;50.866;7.944;2023-09-19T00:05:20;2.17;;;1.98;;
16246;SDS011;8231;50.866;7.944;2023-09-19T00:07:50;3.58;;;1.90;;
16246;SDS011;8231;50.866;7.944;2023-09-19T00:10:21;3.28;;;1.90;;
16246;SDS011;8231;50.866;7.944;2023-09-19T00:12:51;1.77;;;1.67;;
16246;SDS011;8231;50.866;7.944;2023-09-19T00:15:22;2.10;;;1.88;;
16246;SDS011;8231;50.866;7.944;2023-09-19T00:17:51;2.30;;;2.10;;
16246;SDS011;8231;50.866;7.944;2023-09-19T00:20:20;5.60;;;4.38;;
16246;SDS011;8231;50.866;7.944;2023-09-19T00:22:49;4.70;;;2.80;;
16246;SDS011;8231;50.866;7.944;2023-09-19T00:25:20;2.60;;;2.40;;
16246;SDS011;8231;50.866;7.944;2023-09-19T00:27:49;2.30;;;2.10;;
16246;SDS011;8231;50.866;7.944;2023-09-19T00:30:18;3.97;;;2.78;;
16246;SDS011;8231;50.866;7.944;2023-09-19T00:32:48;3.72;;;2.45;;
16246;SDS011;8231;50.866;7.944;2023-09-19T00:35:21;4.13;;;2.15;;
16246;SDS011;8231;50.866;7.944;2023-09-19T00:37:50;3.63;;;1.98;;
16246;SDS011;8231;50.866;7.944;2023-09-19T00:40:18;2.72;;;2.30;;
16246;SDS011;8231;50.866;7.944;2023-09-19T00:42:49;3.63;;;2.10;;
16246;SDS011;8231;50.866;7.944;2023-09-19T00:45:18;2.00;;;1.80;;
16246;SDS011;8231;50.866;7.944;2023-09-19T00:47:48;3.63;;;2.88;;
16246;SDS011;8231;50.866;7.944;2023-09-19T00:50:17;3.40;;;2.10;;
16246;SDS011;8231;50.866;7.944;2023-09-19T00:52:48;3.28;;;2.97;;
16246;SDS011;8231;50.866;7.944;2023-09-19T00:55:18;4.43;;;3.92;;
16246;SDS011;8231;50.866;7.944;2023-09-19T00:57:47;4.57;;;2.22;;
16246;SDS011;8231;50.866;7.944;2023-09-19T01:00:18;2.25;;;1.95;;
16246;SDS011;8231;50.866;7.944;2023-09-19T01:02:47;3.50;;;1.80;;
16246;SDS011;8231;50.866;7.944;2023-09-19T01:05:16;3.83;;;2.20;;
16246;SDS011;8231;50.866;7.944;2023-09-19T01:07:45;2.20;;;2.00;;
16246;SDS011;8231;50.866;7.944;2023-09-19T01:10:17;22.08;;;20.50;;
16246;SDS011;8231;50.866;7.944;2023-09-19T01:12:52;3.15;;;1.88;;
16246;SDS011;8231;50.866;7.944;2023-09-19T01:15:28;3.58;;;3.30;;
16246;SDS011;8231;50.866;7.944;2023-09-19T01:18:07;7.43;;;2.28;;
16246;SDS011;8231;50.866;7.944;2023-09-19T01:20:45;2.97;;;1.77;;
16246;SDS011;8231;50.866;7.944;2023-09-19T01:23:23;4.57;;;1.95;;
16246;SDS011;8231;50.866;7.944;2023-09-19T01:26:18;3.22;;;2.05;;
16246;SDS011;8231;50.866;7.944;2023-09-19T01:29:16;2.85;;;1.80;;
16246;SDS011;8231;50.866;7.944;2023-09-19T01:32:01;3.83;;;1.90;;
16246;SDS011;8231;50.866;7.944;2023-09-19T01:34:44;6.43;;;1.90;;
16246;SDS011;8231;50.866;7.944;2023-09-19T01:37:15;2.13;;;1.67;;
16246;SDS011;8231;50.866;7.944;2023-09-19T01:39:46;2.33;;;1.38;;
16246;SDS011;8231;50.866;7.944;2023-09-19T01:42:20;4.18;;;1.90;;
16246;SDS011;8231;50.866;7.944;2023-09-19T01:44:59;3.13;;;1.75;;
16246;SDS011;8231;50.866;7.944;2023-09-19T01:47:37;4.07;;;1.63;;
16246;SDS011;8231;50.866;7.944;2023-09-19T01:50:12;2.58;;;1.65;;
16246;SDS011;8231;50.866;7.944;2023-09-19T01:52:49;5.00;;;2.40;;
16246;SDS011;8231;50.866;7.944;2023-09-19T01:55:26;2.30;;;1.58;;
16246;SDS011;8231;50.866;7.944;2023-09-19T01:57:58;2.40;;;1.92;;
16246;SDS011;8231;50.866;7.944;2023-09-19T02:00:34;2.70;;;2.10;;
16246;SDS011;8231;50.866;7.944;2023-09-19T02:03:06;3.67;;;2.03;;
16246;SDS011;8231;50.866;7.944;2023-09-19T02:05:36;2.35;;;1.85;;
16246;SDS011;8231;50.866;7.944;2023-09-19T02:08:06;3.92;;;1.98;;
16246;SDS011;8231;50.866;7.944;2023-09-19T02:10:34;3.17;;;2.90;;
16246;SDS011;8231;50.866;7.944;2023-09-19T02:13:03;3.42;;;1.88;;
16246;SDS011;8231;50.866;7.944;2023-09-19T02:15:32;3.08;;;1.45;;
16246;SDS011;8231;50.866;7.944;2023-09-19T02:18:01;5.93;;;2.03;;
16246;SDS011;8231;50.866;7.944;2023-09-19T02:20:31;2.75;;;1.77;;
16246;SDS011;8231;50.866;7.944;2023-09-19T02:22:59;3.08;;;1.48;;
16246;SDS011;8231;50.866;7.944;2023-09-19T02:25:29;3.50;;;1.55;;
16246;SDS011;8231;50.866;7.944;2023-09-19T02:27:58;5.45;;;1.90;;
16246;SDS011;8231;50.866;7.944;2023-09-19T02:30:29;2.50;;;1.70;;
16246;SDS011;8231;50.866;7.944;2023-09-19T02:32:57;3.90;;;1.90;;
16246;SDS011;8231;50.866;7.944;2023-09-19T02:35:28;2.63;;;1.50;;
16246;SDS011;8231;50.866;7.944;2023-09-19T02:38:01;2.95;;;1.70;;
16246;SDS011;8231;50.866;7.944;2023-09-19T02:40:33;4.82;;;2.00;;
16246;SDS011;8231;50.866;7.944;2023-09-19T02:43:03;2.78;;;1.75;;
16246;SDS011;8231;50.866;7.944;2023-09-19T02:45:32;4.43;;;2.15;;
16246;SDS011;8231;50.866;7.944;2023-09-19T02:48:01;17.35;;;16.30;;
16246;SDS011;8231;50.866;7.944;2023-09-19T02:50:30;3.10;;;1.95;;
16246;SDS011;8231;50.866;7.944;2023-09-19T02:53:02;5.55;;;2.30;;
16246;SDS011;8231;50.866;7.944;2023-09-19T02:55:31;7.85;;;3.15;;
16246;SDS011;8231;50.866;7.944;2023-09-19T02:58:00;6.22;;;2.58;;
16246;SDS011;8231;50.866;7.944;2023-09-19T03:00:29;4.30;;;2.25;;
16246;SDS011;8231;50.866;7.944;2023-09-19T03:02:58;4.38;;;3.05;;
16246;SDS011;8231;50.866;7.944;2023-09-19T03:05:26;4.35;;;2.70;;
16246;SDS011;8231;50.866;7.944;2023-09-19T03:07:58;3.75;;;3.42;;
16246;SDS011;8231;50.866;7.944;2023-09-19T03:10:29;14.82;;;13.55;;
16246;SDS011;8231;50.866;7.944;2023-09-19T03:12:58;5.93;;;2.70;;
16246;SDS011;8231;50.866;7.944;2023-09-19T03:15:27;6.22;;;2.00;;
16246;SDS011;8231;50.866;7.944;2023-09-19T03:17:56;4.72;;;2.33;;
16246;SDS011;8231;50.866;7.944;2023-09-19T03:20:25;5.05;;;2.10;;
16246;SDS011;8231;50.866;7.944;2023-09-19T03:22:54;4.43;;;1.88;;
16246;SDS011;8231;50.866;7.944;2023-09-19T03:25:24;6.22;;;2.88;;
16246;SDS011;8231;50.866;7.944;2023-09-19T03:27:55;4.47;;;1.80;;
16246;SDS011;8231;50.866;7.944;2023-09-19T03:30:25;8.30;;;3.70;;
16246;SDS011;8231;50.866;7.944;2023-09-19T03:32:53;5.53;;;2.13;;
16246;SDS011;8231;50.866;7.944;2023-09-19T03:35:21;6.75;;;3.88;;
16246;SDS011;8231;50.866;7.944;2023-09-19T03:37:50;7.95;;;3.53;;
16246;SDS011;8231;50.866;7.944;2023-09-19T03:40:19;7.45;;;3.53;;
16246;SDS011;8231;50.866;7.944;2023-09-19T03:42:49;4.35;;;2.38;;
16246;SDS011;8231;50.866;7.944;2023-09-19T03:45:18;3.00;;;2.25;;
16246;SDS011;8231;50.866;7.944;2023-09-19T03:47:50;4.95;;;2.97;;
16246;SDS011;8231;50.866;7.944;2023-09-19T03:50:20;7.45;;;2.58;;
16246;SDS011;8231;50.866;7.944;2023-09-19T03:52:49;4.60;;;2.58;;
16246;SDS011;8231;50.866;7.944;2023-09-19T03:55:17;5.97;;;2.55;;
16246;SDS011;8231;50.866;7.944;2023-09-19T03:57:47;4.88;;;2.28;;
16246;SDS011;8231;50.866;7.944;2023-09-19T04:00:16;5.97;;;3.05;;
16246;SDS011;8231;50.866;7.944;2023-09-19T04:02:48;6.78;;;3.40;;
16246;SDS011;8231;50.866;7.944;2023-09-19T04:05:16;6.40;;;3.30;;
16246;SDS011;8231;50.866;7.944;2023-09-19T04:07:45;5.75;;;2.53;;
16246;SDS011;8231;50.866;7.944;2023-09-19T04:10:13;5.20;;;2.50;;
16246;SDS011;8231;50.866;7.944;2023-09-19T04:12:50;6.07;;;2.55;;
16246;SDS011;8231;50.866;7.944;2023-09-19T04:15:19;7.53;;;2.17;;
16246;SDS011;8231;50.866;7.944;2023-09-19T04:17:51;6.43;;;2.95;;
16246;SDS011;8231;50.866;7.944;2023-09-19T04:20:19;9.80;;;2.72;;
16246;SDS011;8231;50.866;7.944;2023-09-19T04:22:49;6.00;;;2.58;;
16246;SDS011;8231;50.866;7.944;2023-09-19T04:25:17;6.07;;;3.15;;
16246;SDS011;8231;50.866;7.944;2023-09-19T04:27:47;6.38;;;2.67;;
16246;SDS011;8231;50.866;7.944;2023-09-19T04:30:15;7.47;;;3.08;;
16246;SDS011;8231;50.866;7.944;2023-09-19T04:32:45;5.97;;;2.20;;
16246;SDS011;8231;50.866;7.944;2023-09-19T04:35:17;5.80;;;2.33;;
16246;SDS011;8231;50.866;7.944;2023-09-19T04:37:46;10.80;;;3.15;;
16246;SDS011;8231;50.866;7.944;2023-09-19T04:40:14;9.98;;;2.67;;
16246;SDS011;8231;50.866;7.944;2023-09-19T04:42:44;5.63;;;2.42;;
16246;SDS011;8231;50.866;7.944;2023-09-19T04:45:14;4.55;;;2.20;;
16246;SDS011;8231;50.866;7.944;2023-09-19T04:47:42;7.82;;;2.60;;
16246;SDS011;8231;50.866;7.944;2023-09-19T04:50:12;6.68;;;1.92;;
16246;SDS011;8231;50.866;7.944;2023-09-19T04:52:41;5.00;;;3.08;;
16246;SDS011;8231;50.866;7.944;2023-09-19T04:55:10;6.20;;;2.38;;
16246;SDS011;8231;50.866;7.944;2023-09-19T04:57:43;7.18;;;2.00;;
16246;SDS011;8231;50.866;7.944;2023-09-19T05:00:13;4.43;;;2.17;;
16246;SDS011;8231;50.866;7.944;2023-09-19T05:02:43;8.63;;;2.88;;
16246;SDS011;8231;50.866;7.944;2023-09-19T05:05:13;5.10;;;2.15;;
16246;SDS011;8231;50.866;7.944;2023-09-19T05:07:43;9.18;;;2.47;;
16246;SDS011;8231;50.866;7.944;2023-09-19T05:10:11;10.27;;;8.93;;
16246;SDS011;8231;50.866;7.944;2023-09-19T05:12:40;7.93;;;2.88;;
16246;SDS011;8231;50.866;7.944;2023-09-19T05:15:11;5.35;;;2.35;;
16246;SDS011;8231;50.866;7.944;2023-09-19T05:17:40;8.05;;;2.85;;
16246;SDS011;8231;50.866;7.944;2023-09-19T05:20:09;5.28;;;2.55;;
16246;SDS011;8231;50.866;7.944;2023-09-19T05:22:42;9.23;;;2.80;;
16246;SDS011;8231;50.866;7.944;2023-09-19T05:25:10;6.57;;;2.78;;
16246;SDS011;8231;50.866;7.944;2023-09-19T05:27:42;8.57;;;3.95;;
16246;SDS011;8231;50.866;7.944;2023-09-19T05:30:11;5.60;;;2.83;;
16246;SDS011;8231;50.866;7.944;2023-09-19T05:32:42;4.82;;;2.03;;
16246;SDS011;8231;50.866;7.944;2023-09-19T05:35:10;4.45;;;2.20;;
16246;SDS011;8231;50.866;7.944;2023-09-19T05:37:39;7.38;;;2.83;;
16246;SDS011;8231;50.866;7.944;2023-09-19T05:40:09;4.88;;;2.45;;
16246;SDS011;8231;50.866;7.944;2023-09-19T05:42:38;3.75;;;2.50;;
16246;SDS011;8231;50.866;7.944;2023-09-19T05:45:08;8.88;;;3.72;;
16246;SDS011;8231;50.866;7.944;2023-09-19T05:47:38;4.35;;;2.40;;
16246;SDS011;8231;50.866;7.944;2023-09-19T05:50:09;5.50;;;2.50;;
16246;SDS011;8231;50.866;7.944;2023-09-19T05:52:37;6.35;;;2.25;;
16246;SDS011;8231;50.866;7.944;2023-09-19T05:55:09;7.93;;;3.03;;
16246;SDS011;8231;50.866;7.944;2023-09-19T05:57:37;7.47;;;2.75;;
16246;SDS011;8231;50.866;7.944;2023-09-19T06:00:06;5.90;;;3.67;;
16246;SDS011;8231;50.866;7.944;2023-09-19T06:02:37;7.28;;;3.05;;
16246;SDS011;8231;50.866;7.944;2023-09-19T06:05:07;4.93;;;2.97;;
16246;SDS011;8231;50.866;7.944;2023-09-19T06:07:37;7.85;;;2.42;;
16246;SDS011;8231;50.866;7.944;2023-09-19T06:10:05;4.15;;;2.25;;
16246;SDS011;8231;50.866;7.944;2023-09-19T06:12:39;9.80;;;2.65;;
16246;SDS011;8231;50.866;7.944;2023-09-19T06:15:07;6.65;;;2.35;;
16246;SDS011;8231;50.866;7.944;2023-09-19T06:17:39;7.43;;;2.00;;
16246;SDS011;8231;50.866;7.944;2023-09-19T06:20:07;10.90;;;3.05;;
16246;SDS011;8231;50.866;7.944;2023-09-19T06:22:39;9.90;;;3.35;;
16246;SDS011;8231;50.866;7.944;2023-09-19T06:25:09;4.13;;;2.00;;
16246;SDS011;8231;50.866;7.944;2023-09-19T06:27:39;7.47;;;3.33;;
16246;SDS011;8231;50.866;7.944;2023-09-19T06:30:09;7.47;;;2.88;;
16246;SDS011;8231;50.866;7.944;2023-09-19T06:32:39;6.05;;;2.55;;
16246;SDS011;8231;50.866;7.944;2023-09-19T06:35:10;6.95;;;2.58;;
16246;SDS011;8231;50.866;7.944;2023-09-19T06:37:39;4.25;;;2.30;;
16246;SDS011;8231;50.866;7.944;2023-09-19T06:40:09;5.65;;;2.60;;
16246;SDS011;8231;50.866;7.944;2023-09-19T06:42:42;5.88;;;2.40;;
16246;SDS011;8231;50.866;7.944;2023-09-19T06:45:11;6.80;;;3.22;;
16246;SDS011;8231;50.866;7.944;2023-09-19T06:47:44;6.50;;;2.20;;
16246;SDS011;8231;50.866;7.944;2023-09-19T06:50:16;5.28;;;2.33;;
16246;SDS011;8231;50.866;7.944;2023-09-19T06:52:48;5.10;;;2.13;;
16246;SDS011;8231;50.866;7.944;2023-09-19T06:55:18;4.05;;;2.33;;
16246;SDS011;8231;50.866;7.944;2023-09-19T06:57:52;6.35;;;2.30;;
16246;SDS011;8231;50.866;7.944;2023-09-19T07:00:21;10.07;;;2.40;;
16246;SDS011;8231;50.866;7.944;2023-09-19T07:02:56;5.13;;;3.45;;
16246;SDS011;8231;50.866;7.944;2023-09-19T07:05:27;7.35;;;2.50;;
16246;SDS011;8231;50.866;7.944;2023-09-19T07:07:55;8.15;;;2.55;;
16246;SDS011;8231;50.866;7.944;2023-09-19T07:10:25;6.30;;;2.30;;
16246;SDS011;8231;50.866;7.944;2023-09-19T07:12:58;4.43;;;2.83;;
16246;SDS011;8231;50.866;7.944;2023-09-19T07:15:27;6.35;;;2.50;;
16246;SDS011;8231;50.866;7.944;2023-09-19T07:17:57;5.47;;;2.70;;
16246;SDS011;8231;50.866;7.944;2023-09-19T07:20:27;7.03;;;2.30;;
16246;SDS011;8231;50.866;7.944;2023-09-19T07:22:58;7.15;;;3.10;;
16246;SDS011;8231;50.866;7.944;2023-09-19T07:25:27;8.32;;;2.90;;
16246;SDS011;8231;50.866;7.944;2023-09-19T07:27:58;6.25;;;5.70;;
16246;SDS011;8231;50.866;7.944;2023-09-19T07:30:30;28.48;;;26.17;;
16246;SDS011;8231;50.866;7.944;2023-09-19T07:32:59;7.90;;;2.58;;
16246;SDS011;8231;50.866;7.944;2023-09-19T07:35:29;6.95;;;2.95;;
16246;SDS011;8231;50.866;7.944;2023-09-19T07:37:57;5.78;;;2.95;;
16246;SDS011;8231;50.866;7.944;2023-09-19T07:40:28;4.30;;;2.33;;
16246;SDS011;8231;50.866;7.944;2023-09-19T07:42:58;14.15;;;12.73;;
16246;SDS011;8231;50.866;7.944;2023-09-19T07:45:27;6.40;;;2.10;;
16246;SDS011;8231;50.866;7.944;2023-09-19T07:47:58;8.40;;;3.75;;
16246;SDS011;8231;50.866;7.944;2023-09-19T07:50:31;24.52;;;22.48;;
16246;SDS011;8231;50.866;7.944;2023-09-19T07:53:03;5.18;;;2.78;;
16246;SDS011;8231;50.866;7.944;2023-09-19T07:55:32;6.53;;;3.63;;
16246;SDS011;8231;50.866;7.944;2023-09-19T07:58:02;6.05;;;3.53;;
16246;SDS011;8231;50.866;7.944;2023-09-19T08:00:31;7.85;;;2.58;;
16246;SDS011;8231;50.866;7.944;2023-09-19T08:03:01;8.35;;;3.53;;
16246;SDS011;8231;50.866;7.944;2023-09-19T08:05:41;7.00;;;2.80;;
16246;SDS011;8231;50.866;7.944;2023-09-19T08:08:12;6.15;;;3.53;;
16246;SDS011;8231;50.866;7.944;2023-09-19T08:10:42;10.77;;;4.15;;
16246;SDS011;8231;50.866;7.944;2023-09-19T08:13:14;5.88;;;2.90;;
16246;SDS011;8231;50.866;7.944;2023-09-19T08:15:44;6.65;;;2.65;;
16246;SDS011;8231;50.866;7.944;2023-09-19T08:18:13;7.95;;;3.22;;
16246;SDS011;8231;50.866;7.944;2023-09-19T08:20:42;4.70;;;2.72;;
16246;SDS011;8231;50.866;7.944;2023-09-19T08:23:13;5.45;;;2.35;;
16246;SDS011;8231;50.866;7.944;2023-09-19T08:25:41;7.78;;;2.78;;
16246;SDS011;8231;50.866;7.944;2023-09-19T08:28:09;4.95;;;2.13;;
16246;SDS011;8231;50.866;7.944;2023-09-19T08:30:46;8.85;;;3.22;;
16246;SDS011;8231;50.866;7.944;2023-09-19T08:33:14;8.77;;;4.22;;
16246;SDS011;8231;50.866;7.944;2023-09-19T08:35:43;5.88;;;3.40;;
16246;SDS011;8231;50.866;7.944;2023-09-19T08:38:12;5.88;;;2.88;;
16246;SDS011;8231;50.866;7.944;2023-09-19T08:40:41;7.95;;;3.13;;
16246;SDS011;8231;50.866;7.944;2023-09-19T08:43:10;5.60;;;2.60;;
16246;SDS011;8231;50.866;7.944;2023-09-19T08:45:39;6.35;;;5.43;;
16246;SDS011;8231;50.866;7.944;2023-09-19T08:48:15;7.07;;;3.15;;
16246;SDS011;8231;50.866;7.944;2023-09-19T08:50:49;8.88;;;6.43;;
16246;SDS011;8231;50.866;7.944;2023-09-19T08:53:21;8.77;;;5.40;;
16246;SDS011;8231;50.866;7.944;2023-09-19T08:55:54;12.82;;;7.80;;
16246;SDS011;8231;50.866;7.944;2023-09-19T08:58:25;13.63;;;9.68;;
16246;SDS011;8231;50.866;7.944;2023-09-19T09:01:00;6.95;;;3.10;;
16246;SDS011;8231;50.866;7.944;2023-09-19T09:03:32;6.93;;;3.33;;
16246;SDS011;8231;50.866;7.944;2023-09-19T09:06:01;9.75;;;2.70;;
16246;SDS011;8231;50.866;7.944;2023-09-19T09:08:30;6.75;;;2.63;;
16246;SDS011;8231;50.866;7.944;2023-09-19T09:10:59;6.40;;;3.15;;
16246;SDS011;8231;50.866;7.944;2023-09-19T09:13:28;7.30;;;2.67;;
16246;SDS011;8231;50.866;7.944;2023-09-19T09:15:57;7.82;;;3.00;;
16246;SDS011;8231;50.866;7.944;2023-09-19T09:18:25;5.80;;;3.20;;
16246;SDS011;8231;50.866;7.944;2023-09-19T09:20:57;5.43;;;2.70;;
16246;SDS011;8231;50.866;7.944;2023-09-19T09:23:31;4.65;;;3.53;;
16246;SDS011;8231;50.866;7.944;2023-09-19T09:25:59;6.80;;;2.92;;
16246;SDS011;8231;50.866;7.944;2023-09-19T09:28:34;4.97;;;2.22;;
16246;SDS011;8231;50.866;7.944;2023-09-19T09:31:05;9.35;;;4.32;;
16246;SDS011;8231;50.866;7.944;2023-09-19T09:33:36;7.68;;;5.72;;
16246;SDS011;8231;50.866;7.944;2023-09-19T09:36:10;8.75;;;3.22;;
16246;SDS011;8231;50.866;7.944;2023-09-19T09:38:43;10.45;;;9.48;;
16246;SDS011;8231;50.866;7.944;2023-09-19T09:41:12;7.47;;;3.40;;
16246;SDS011;8231;50.866;7.944;2023-09-19T09:43:53;9.52;;;4.45;;
16246;SDS011;8231;50.866;7.944;2023-09-19T09:46:22;5.97;;;2.80;;
16246;SDS011;8231;50.866;7.944;2023-09-19T09:49:26;6.40;;;2.60;;
16246;SDS011;8231;50.866;7.944;2023-09-19T09:52:02;5.47;;;2.75;;
16246;SDS011;8231;50.866;7.944;2023-09-19T09:54:39;5.30;;;3.25;;
16246;SDS011;8231;50.866;7.944;2023-09-19T09:57:26;6.75;;;3.08;;
16246;SDS011;8231;50.866;7.944;2023-09-19T09:59:57;5.25;;;2.70;;
16246;SDS011;8231;50.866;7.944;2023-09-19T10:02:44;6.45;;;3.53;;
16246;SDS011;8231;50.866;7.944;2023-09-19T10:05:14;8.02;;;2.97;;
16246;SDS011;8231;50.866;7.944;2023-09-19T10:08:09;6.57;;;2.30;;
16246;SDS011;8231;50.866;7.944;2023-09-19T10:10:39;9.10;;;3.85;;
16246;SDS011;8231;50.866;7.944;2023-09-19T10:13:20;6.80;;;3.13;;
16246;SDS011;8231;50.866;7.944;2023-09-19T10:15:50;5.70;;;4.10;;
16246;SDS011;8231;50.866;7.944;2023-09-19T10:18:22;6.10;;;2.80;;
16246;SDS011;8231;50.866;7.944;2023-09-19T10:20:54;4.82;;;2.78;;
16246;SDS011;8231;50.866;7.944;2023-09-19T10:23:27;7.43;;;2.92;;
16246;SDS011;8231;50.866;7.944;2023-09-19T10:26:00;8.65;;;4.25;;
16246;SDS011;8231;50.866;7.944;2023-09-19T10:28:32;7.75;;;4.15;;
16246;SDS011;8231;50.866;7.944;2023-09-19T10:31:02;9.15;;;5.88;;
16246;SDS011;8231;50.866;7.944;2023-09-19T10:33:34;6.38;;;2.63;;
16246;SDS011;8231;50.866;7.944;2023-09-19T10:36:05;10.80;;;3.25;;
16246;SDS011;8231;50.866;7.944;2023-09-19T10:38:35;7.95;;;3.38;;
16246;SDS011;8231;50.866;7.944;2023-09-19T10:41:07;8.05;;;2.80;;
16246;SDS011;8231;50.866;7.944;2023-09-19T10:43:37;8.88;;;8.07;;
16246;SDS011;8231;50.866;7.944;2023-09-19T10:46:11;7.10;;;4.90;;
16246;SDS011;8231;50.866;7.944;2023-09-19T10:48:40;6.53;;;3.65;;
16246;SDS011;8231;50.866;7.944;2023-09-19T10:51:11;5.30;;;2.40;;
16246;SDS011;8231;50.866;7.944;2023-09-19T10:53:46;3.85;;;2.33;;
16246;SDS011;8231;50.866;7.944;2023-09-19T10:56:18;6.78;;;2.50;;
16246;SDS011;8231;50.866;7.944;2023-09-19T10:59:04;5.00;;;2.75;;
16246;SDS011;8231;50.866;7.944;2023-09-19T11:01:43;3.22;;;1.80;;
16246;SDS011;8231;50.866;7.944;2023-09-19T11:04:20;5.20;;;2.75;;
16246;SDS011;8231;50.866;7.944;2023-09-19T11:06:59;7.07;;;2.25;;
16246;SDS011;8231;50.866;7.944;2023-09-19T11:09:44;4.32;;;2.50;;
16246;SDS011;8231;50.866;7.944;2023-09-19T11:18:51;7.60;;;6.63;;
16246;SDS011;8231;50.866;7.944;2023-09-19T11:27:11;6.68;;;2.45;;
16246;SDS011;8231;50.866;7.944;2023-09-19T11:29:43;4.30;;;2.13;;
16246;SDS011;8231;50.866;7.944;2023-09-19T11:32:12;5.28;;;2.55;;
16246;SDS011;8231;50.866;7.944;2023-09-19T11:34:44;4.85;;;2.70;;
16246;SDS011;8231;50.866;7.944;2023-09-19T11:40:38;6.85;;;5.10;;
16246;SDS011;8231;50.866;7.944;2023-09-19T11:43:31;8.27;;;2.55;;
16246;SDS011;8231;50.866;7.944;2023-09-19T11:46:04;4.88;;;2.80;;
16246;SDS011;8231;50.866;7.944;2023-09-19T11:48:33;5.13;;;2.50;;
16246;SDS011;8231;50.866;7.944;2023-09-19T11:51:11;8.50;;;3.13;;
16246;SDS011;8231;50.866;7.944;2023-09-19T11:53:49;6.47;;;3.13;;
16246;SDS011;8231;50.866;7.944;2023-09-19T11:56:18;4.72;;;2.80;;
16246;SDS011;8231;50.866;7.944;2023-09-19T11:58:53;6.32;;;4.35;;
16246;SDS011;8231;50.866;7.944;2023-09-19T12:01:23;4.70;;;2.40;;
16246;SDS011;8231;50.866;7.944;2023-09-19T12:03:56;6.35;;;4.20;;
16246;SDS011;8231;50.866;7.944;2023-09-19T12:06:26;13.88;;;12.90;;
16246;SDS011;8231;50.866;7.944;2023-09-19T12:08:56;6.10;;;2.78;;
16246;SDS011;8231;50.866;7.944;2023-09-19T12:11:31;5.07;;;2.63;;
16246;SDS011;8231;50.866;7.944;2023-09-19T12:14:02;4.03;;;2.63;;
16246;SDS011;8231;50.866;7.944;2023-09-19T12:16:31;4.15;;;2.50;;
16246;SDS011;8231;50.866;7.944;2023-09-19T12:21:55;4.97;;;2.60;;
16246;SDS011;8231;50.866;7.944;2023-09-19T12:24:26;9.48;;;4.03;;
16246;SDS011;8231;50.866;7.944;2023-09-19T12:27:01;5.90;;;2.67;;
16246;SDS011;8231;50.866;7.944;2023-09-19T12:29:41;7.45;;;6.60;;
16246;SDS011;8231;50.866;7.944;2023-09-19T12:32:10;7.03;;;2.83;;
16246;SDS011;8231;50.866;7.944;2023-09-19T12:34:39;6.15;;;2.95;;
16246;SDS011;8231;50.866;7.944;2023-09-19T12:37:10;6.45;;;4.72;;
16246;SDS011;8231;50.866;7.944;2023-09-19T12:39:39;6.93;;;5.65;;
16246;SDS011;8231;50.866;7.944;2023-09-19T12:42:09;4.20;;;2.60;;
16246;SDS011;8231;50.866;7.944;2023-09-19T12:44:42;8.02;;;2.75;;
16246;SDS011;8231;50.866;7.944;2023-09-19T12:47:13;28.90;;;7.72;;
16246;SDS011;8231;50.866;7.944;2023-09-19T12:50:05;8.30;;;4.88;;
16246;SDS011;8231;50.866;7.944;2023-09-19T12:52:41;3.40;;;2.60;;
16246;SDS011;8231;50.866;7.944;2023-09-19T12:55:21;4.68;;;2.55;;
16246;SDS011;8231;50.866;7.944;2023-09-19T12:58:02;16.63;;;5.72;;
16246;SDS011;8231;50.866;7.944;2023-09-19T13:00:38;22.55;;;3.80;;
16246;SDS011;8231;50.866;7.944;2023-09-19T13:03:14;8.05;;;6.55;;
16246;SDS011;8231;50.866;7.944;2023-09-19T13:05:49;32.83;;;15.43;;
16246;SDS011;8231;50.866;7.944;2023-09-19T13:08:20;13.65;;;12.63;;
16246;SDS011;8231;50.866;7.944;2023-09-19T13:11:05;97.13;;;22.00;;
16246;SDS011;8231;50.866;7.944;2023-09-19T13:13:37;91.25;;;15.80;;
16246;SDS011;8231;50.866;7.944;2023-09-19T13:16:08;139.48;;;38.85;;
16246;SDS011;8231;50.866;7.944;2023-09-19T13:18:44;93.80;;;28.20;;
16246;SDS011;8231;50.866;7.944;2023-09-19T13:21:14;79.28;;;29.15;;
16246;SDS011;8231;50.866;7.944;2023-09-19T13:23:49;130.18;;;32.08;;
16246;SDS011;8231;50.866;7.944;2023-09-19T13:26:18;100.53;;;33.40;;
16246;SDS011;8231;50.866;7.944;2023-09-19T13:28:46;59.92;;;18.65;;
16246;SDS011;8231;50.866;7.944;2023-09-19T13:31:17;66.63;;;19.13;;
16246;SDS011;8231;50.866;7.944;2023-09-19T13:33:47;43.72;;;13.00;;
16246;SDS011;8231;50.866;7.944;2023-09-19T13:36:16;113.63;;;41.30;;
16246;SDS011;8231;50.866;7.944;2023-09-19T13:38:45;54.65;;;19.63;;
16246;SDS011;8231;50.866;7.944;2023-09-19T13:41:15;32.65;;;8.35;;
16246;SDS011;8231;50.866;7.944;2023-09-19T13:43:44;78.60;;;40.00;;
16246;SDS011;8231;50.866;7.944;2023-09-19T13:46:14;5.38;;;2.63;;
16246;SDS011;8231;50.866;7.944;2023-09-19T13:48:45;8.80;;;3.70;;
16246;SDS011;8231;50.866;7.944;2023-09-19T13:51:15;66.05;;;13.23;;
16246;SDS011;8231;50.866;7.944;2023-09-19T13:53:45;5.53;;;4.82;;
16246;SDS011;8231;50.866;7.944;2023-09-19T13:56:14;34.10;;;9.93;;
16246;SDS011;8231;50.866;7.944;2023-09-19T13:58:42;7.90;;;4.15;;
16246;SDS011;8231;50.866;7.944;2023-09-19T14:01:10;68.70;;;25.42;;
16246;SDS011;8231;50.866;7.944;2023-09-19T14:03:39;3.55;;;2.10;;
16246;SDS011;8231;50.866;7.944;2023-09-19T14:06:14;6.38;;;4.28;;
16246;SDS011;8231;50.866;7.944;2023-09-19T14:08:42;5.60;;;2.90;;
16246;SDS011;8231;50.866;7.944;2023-09-19T14:11:11;9.40;;;8.57;;
16246;SDS011;8231;50.866;7.944;2023-09-19T14:13:41;4.32;;;2.00;;
16246;SDS011;8231;50.866;7.944;2023-09-19T14:16:13;6.70;;;2.35;;
16246;SDS011;8231;50.866;7.944;2023-09-19T14:18:41;3.58;;;1.88;;
16246;SDS011;8231;50.866;7.944;2023-09-19T14:21:10;2.70;;;2.25;;
16246;SDS011;8231;50.866;7.944;2023-09-19T14:23:39;5.13;;;1.77;;
16246;SDS011;8231;50.866;7.944;2023-09-19T14:26:09;5.25;;;4.72;;
16246;SDS011;8231;50.866;7.944;2023-09-19T14:28:38;10.35;;;6.93;;
16246;SDS011;8231;50.866;7.944;2023-09-19T14:31:06;8.70;;;8.20;;
16246;SDS011;8231;50.866;7.944;2023-09-19T14:33:35;3.97;;;2.00;;
16246;SDS011;8231;50.866;7.944;2023-09-19T14:36:04;3.72;;;2.53;;
16246;SDS011;8231;50.866;7.944;2023-09-19T14:38:33;6.28;;;2.15;;
16246;SDS011;8231;50.866;7.944;2023-09-19T14:41:03;3.65;;;2.00;;
16246;SDS011;8231;50.866;7.944;2023-09-19T14:43:32;4.35;;;1.92;;
16246;SDS011;8231;50.866;7.944;2023-09-19T14:46:05;4.93;;;4.03;;
16246;SDS011;8231;50.866;7.944;2023-09-19T14:48:36;5.78;;;1.90;;
16246;SDS011;8231;50.866;7.944;2023-09-19T14:51:05;10.93;;;10.23;;
16246;SDS011;8231;50.866;7.944;2023-09-19T14:53:35;6.18;;;2.58;;
16246;SDS011;8231;50.866;7.944;2023-09-19T14:56:07;4.13;;;2.00;;
16246;SDS011;8231;50.866;7.944;2023-09-19T14:58:36;3.47;;;1.63;;
16246;SDS011;8231;50.866;7.944;2023-09-19T15:01:06;3.80;;;1.77;;
16246;SDS011;8231;50.866;7.944;2023-09-19T15:03:36;3.40;;;1.83;;
16246;SDS011;8231;50.866;7.944;2023-09-19T15:06:07;5.55;;;3.30;;
16246;SDS011;8231;50.866;7.944;2023-09-19T15:08:36;3.97;;;1.88;;
16246;SDS011;8231;50.866;7.944;2023-09-19T15:11:08;3.63;;;1.65;;
16246;SDS011;8231;50.866;7.944;2023-09-19T15:13:38;5.13;;;2.20;;
16246;SDS011;8231;50.866;7.944;2023-09-19T15:16:07;2.83;;;1.77;;
16246;SDS011;8231;50.866;7.944;2023-09-19T15:18:36;5.78;;;1.75;;
16246;SDS011;8231;50.866;7.944;2023-09-19T15:21:06;3.08;;;1.45;;
16246;SDS011;8231;50.866;7.944;2023-09-19T15:23:36;4.07;;;2.13;;
16246;SDS011;8231;50.866;7.944;2023-09-19T15:26:05;2.75;;;1.73;;
16246;SDS011;8231;50.866;7.944;2023-09-19T15:28:36;2.42;;;1.55;;
16246;SDS011;8231;50.866;7.944;2023-09-19T15:31:05;2.90;;;1.63;;
16246;SDS011;8231;50.866;7.944;2023-09-19T15:33:34;3.45;;;2.50;;
16246;SDS011;8231;50.866;7.944;2023-09-19T15:36:03;6.97;;;6.38;;
16246;SDS011;8231;50.866;7.944;2023-09-19T15:38:55;3.72;;;1.77;;
16246;SDS011;8231;50.866;7.944;2023-09-19T15:41:26;3.35;;;2.05;;